createdAt,value
2022-12-03T00:01:15.565Z,7.40
2022-12-03T00:03:42.276Z,7.95
2022-12-03T00:06:09.003Z,8.07
2022-12-03T00:08:35.569Z,7.00
2022-12-03T00:11:02.541Z,8.05
2022-12-03T00:13:29.209Z,7.38
2022-12-03T00:15:55.928Z,8.15
2022-12-03T00:18:22.536Z,7.22
2022-12-03T00:20:49.111Z,7.27
2022-12-03T00:23:15.680Z,7.82
2022-12-03T00:25:42.251Z,7.78
2022-12-03T00:28:09.205Z,6.82
2022-12-03T00:30:35.850Z,7.55
2022-12-03T00:33:02.441Z,6.83
2022-12-03T00:35:29.072Z,7.53
2022-12-03T00:37:56.026Z,8.60
2022-12-03T00:40:22.608Z,7.88
2022-12-03T00:42:49.211Z,7.43
2022-12-03T00:45:15.781Z,7.67
2022-12-03T00:47:42.360Z,7.82
2022-12-03T00:50:09.452Z,7.38
2022-12-03T00:52:36.065Z,7.00
2022-12-03T00:55:02.688Z,7.43
2022-12-03T00:57:29.349Z,7.70
2022-12-03T00:59:55.938Z,7.07
2022-12-03T01:02:22.646Z,7.15
2022-12-03T01:04:49.493Z,7.95
2022-12-03T01:07:16.150Z,8.48
2022-12-03T01:09:42.723Z,7.57
2022-12-03T01:12:09.320Z,7.53
2022-12-03T01:14:35.877Z,8.02
2022-12-03T01:17:02.423Z,7.10
2022-12-03T01:19:29.436Z,7.93
2022-12-03T01:21:56.028Z,7.47
2022-12-03T01:24:22.656Z,8.40
2022-12-03T01:26:49.248Z,8.52
2022-12-03T01:29:15.927Z,7.57
2022-12-03T01:32:00.969Z,8.88
2022-12-03T01:34:27.617Z,8.73
2022-12-03T01:36:54.545Z,8.63
2022-12-03T01:39:21.174Z,7.78
2022-12-03T01:41:50.016Z,7.38
2022-12-03T01:44:42.941Z,7.53
2022-12-03T01:47:22.617Z,8.17
2022-12-03T01:50:10.675Z,9.07
2022-12-03T01:52:39.363Z,8.20
2022-12-03T01:55:12.906Z,8.88
2022-12-03T01:57:52.500Z,8.45
2022-12-03T02:00:22.610Z,9.60
2022-12-03T02:02:53.487Z,9.30
2022-12-03T02:05:26.564Z,9.30
2022-12-03T02:07:54.030Z,9.63
2022-12-03T02:10:28.119Z,10.15
2022-12-03T02:13:01.061Z,8.67
2022-12-03T02:15:27.723Z,8.50
2022-12-03T02:17:55.315Z,9.07
2022-12-03T02:20:22.149Z,8.55
2022-12-03T02:23:02.137Z,8.35
2022-12-03T02:25:34.665Z,9.67
2022-12-03T02:28:03.288Z,10.40
2022-12-03T02:30:31.010Z,9.82
2022-12-03T02:32:58.832Z,10.02
2022-12-03T02:35:34.870Z,8.77
2022-12-03T02:38:08.355Z,10.70
2022-12-03T02:40:35.225Z,9.77
2022-12-03T02:43:03.453Z,10.63
2022-12-03T02:45:52.259Z,10.32
2022-12-03T02:48:40.123Z,9.18
2022-12-03T02:51:10.361Z,10.77
2022-12-03T02:53:47.399Z,9.77
2022-12-03T02:56:18.286Z,9.95
2022-12-03T02:58:48.512Z,10.00
2022-12-03T03:01:15.759Z,11.23
2022-12-03T03:03:44.627Z,11.33
2022-12-03T03:06:11.769Z,10.38
2022-12-03T03:08:40.274Z,10.48
2022-12-03T03:11:07.155Z,10.77
2022-12-03T03:13:35.533Z,10.27
2022-12-03T03:16:03.332Z,10.73
2022-12-03T03:18:30.020Z,11.05
2022-12-03T03:20:56.619Z,10.70
2022-12-03T03:23:24.561Z,10.27
2022-12-03T03:25:59.048Z,9.95
2022-12-03T03:28:26.590Z,11.00
2022-12-03T03:30:53.676Z,10.90
2022-12-03T03:33:20.576Z,11.13
2022-12-03T03:35:49.077Z,11.20
2022-12-03T03:38:19.346Z,10.98
2022-12-03T03:40:48.568Z,10.77
2022-12-03T03:43:15.256Z,10.07
2022-12-03T03:45:43.161Z,11.57
2022-12-03T03:48:10.653Z,12.95
2022-12-03T03:50:37.495Z,11.77
2022-12-03T03:53:05.156Z,11.07
2022-12-03T03:55:32.426Z,11.52
2022-12-03T03:57:59.517Z,10.98
2022-12-03T04:00:26.282Z,11.57
2022-12-03T04:02:53.870Z,11.27
2022-12-03T04:05:23.150Z,10.87
2022-12-03T04:07:49.981Z,11.80
2022-12-03T04:10:35.691Z,12.10
2022-12-03T04:13:02.484Z,9.95
2022-12-03T04:15:29.572Z,12.18
2022-12-03T04:18:15.116Z,12.00
2022-12-03T04:20:41.894Z,11.88
2022-12-03T04:23:08.877Z,12.93
2022-12-03T04:26:04.534Z,11.55
2022-12-03T04:28:49.458Z,12.88
2022-12-03T04:31:34.517Z,11.27
2022-12-03T04:34:33.723Z,12.93
2022-12-03T04:37:00.302Z,12.18
2022-12-03T04:39:26.969Z,11.98
2022-12-03T04:41:53.620Z,13.50
2022-12-03T04:44:38.409Z,12.13
2022-12-03T04:47:09.451Z,11.90
2022-12-03T04:49:38.380Z,12.00
2022-12-03T04:52:05.501Z,11.23
2022-12-03T04:54:32.192Z,12.82
2022-12-03T04:56:58.977Z,12.83
2022-12-03T04:59:25.604Z,10.95
2022-12-03T05:01:52.241Z,11.57
2022-12-03T05:04:18.956Z,12.07
2022-12-03T05:06:45.535Z,12.48
2022-12-03T05:09:12.576Z,11.90
2022-12-03T05:11:39.979Z,11.95
2022-12-03T05:14:06.664Z,12.60
2022-12-03T05:16:33.307Z,11.90
2022-12-03T05:19:01.057Z,12.68
2022-12-03T05:21:27.975Z,12.50
2022-12-03T05:23:54.703Z,13.55
2022-12-03T05:26:21.284Z,11.52
2022-12-03T05:28:47.979Z,12.43
2022-12-03T05:31:14.674Z,11.90
2022-12-03T05:33:44.355Z,12.37
2022-12-03T05:36:11.598Z,11.63
2022-12-03T05:38:38.609Z,12.43
2022-12-03T05:41:25.291Z,11.73
2022-12-03T05:43:51.908Z,13.25
2022-12-03T05:46:18.961Z,12.23
2022-12-03T05:48:45.896Z,11.77
2022-12-03T05:51:12.470Z,11.65
2022-12-03T05:53:39.092Z,12.23
2022-12-03T05:56:06.012Z,12.68
2022-12-03T05:58:32.602Z,11.50
2022-12-03T06:00:59.305Z,12.50
2022-12-03T06:03:26.186Z,12.27
2022-12-03T06:05:52.821Z,12.48
2022-12-03T06:08:19.469Z,12.13
2022-12-03T06:10:46.092Z,12.47
2022-12-03T06:13:12.703Z,11.40
2022-12-03T06:15:43.761Z,11.68
2022-12-03T06:18:11.324Z,12.20
2022-12-03T06:20:38.014Z,11.82
2022-12-03T06:23:04.604Z,12.17
2022-12-03T06:25:31.144Z,13.07
2022-12-03T06:27:57.739Z,12.55
2022-12-03T06:30:24.293Z,12.38
2022-12-03T06:32:50.838Z,11.57
2022-12-03T06:35:17.498Z,12.07
2022-12-03T06:37:44.073Z,12.32
2022-12-03T06:40:11.236Z,11.95
2022-12-03T06:42:37.793Z,12.30
2022-12-03T06:45:04.754Z,11.73
2022-12-03T06:47:31.304Z,11.70
2022-12-03T06:49:57.846Z,13.00
2022-12-03T06:52:24.409Z,12.80
2022-12-03T06:54:51.208Z,12.45
2022-12-03T06:57:17.982Z,12.50
2022-12-03T06:59:44.638Z,12.60
2022-12-03T07:02:12.620Z,11.77
2022-12-03T07:04:43.386Z,13.45
2022-12-03T07:07:12.667Z,11.77
2022-12-03T07:09:39.334Z,12.27
2022-12-03T07:12:06.081Z,12.30
2022-12-03T07:14:32.973Z,13.70
2022-12-03T07:16:59.532Z,12.27
2022-12-03T07:19:32.093Z,12.27
2022-12-03T07:21:59.395Z,13.02
2022-12-03T07:24:25.970Z,15.77
2022-12-03T07:26:52.663Z,13.35
2022-12-03T07:29:19.386Z,12.52
2022-12-03T07:31:46.184Z,12.07
2022-12-03T07:34:12.890Z,15.00
2022-12-03T07:36:39.437Z,13.80
2022-12-03T07:39:06.019Z,13.48
2022-12-03T07:41:32.614Z,13.60
2022-12-03T07:43:59.294Z,11.93
2022-12-03T07:46:26.123Z,13.23
2022-12-03T07:48:52.788Z,12.33
2022-12-03T07:51:19.559Z,13.48
2022-12-03T07:53:46.122Z,12.93
2022-12-03T07:56:12.791Z,13.07
2022-12-03T07:58:39.783Z,12.15
2022-12-03T08:01:06.611Z,13.80
2022-12-03T08:03:33.264Z,12.73
2022-12-03T08:05:59.893Z,14.32
2022-12-03T08:08:26.810Z,13.45
2022-12-03T08:10:53.433Z,15.50
2022-12-03T08:13:20.289Z,12.47
2022-12-03T08:15:47.300Z,11.93
2022-12-03T08:18:17.564Z,12.48
2022-12-03T08:20:46.263Z,11.82
2022-12-03T08:23:22.321Z,12.95
2022-12-03T08:25:50.421Z,12.07
2022-12-03T08:28:26.817Z,12.68
2022-12-03T08:31:20.139Z,13.68
2022-12-03T08:33:49.115Z,13.95
2022-12-03T08:36:29.261Z,13.32
2022-12-03T08:38:59.157Z,12.53
2022-12-03T08:41:45.178Z,12.73
2022-12-03T08:44:35.909Z,12.25
2022-12-03T08:47:19.309Z,13.32
2022-12-03T08:49:55.206Z,12.93
2022-12-03T08:52:26.752Z,12.63
2022-12-03T08:54:56.017Z,14.20
2022-12-03T08:57:28.643Z,13.95
2022-12-03T09:00:04.075Z,12.30
2022-12-03T09:02:34.279Z,12.95
2022-12-03T09:05:20.659Z,11.90
2022-12-03T09:07:47.619Z,12.32
2022-12-03T09:10:14.701Z,12.82
2022-12-03T09:12:41.288Z,13.43
2022-12-03T09:15:08.432Z,12.75
2022-12-03T09:17:35.007Z,12.30
2022-12-03T09:20:01.765Z,12.98
2022-12-03T09:22:28.501Z,13.15
2022-12-03T09:24:55.213Z,12.65
2022-12-03T09:27:22.862Z,13.30
2022-12-03T09:29:50.372Z,12.67
2022-12-03T09:32:18.805Z,12.43
2022-12-03T09:34:45.657Z,12.98
2022-12-03T09:37:12.270Z,12.60
2022-12-03T09:39:38.819Z,13.73
2022-12-03T09:42:05.680Z,12.80
2022-12-03T09:44:34.518Z,12.85
2022-12-03T09:47:03.293Z,13.43
2022-12-03T09:49:32.963Z,13.00
2022-12-03T09:52:03.008Z,12.18
2022-12-03T09:54:31.151Z,11.97
2022-12-03T09:57:00.899Z,13.07
2022-12-03T09:59:35.141Z,13.13
2022-12-03T10:02:03.271Z,12.38
2022-12-03T10:04:30.180Z,13.85
2022-12-03T10:06:58.961Z,12.60
2022-12-03T10:09:28.638Z,12.38
2022-12-03T10:11:59.973Z,13.15
2022-12-03T10:14:27.547Z,13.23
2022-12-03T10:16:54.626Z,12.55
2022-12-03T10:19:28.676Z,11.87
2022-12-03T10:21:55.795Z,13.30
2022-12-03T10:24:31.478Z,12.35
2022-12-03T10:27:04.437Z,11.48
2022-12-03T10:29:35.864Z,13.00
2022-12-03T10:32:06.007Z,13.23
2022-12-03T10:34:37.806Z,12.88
2022-12-03T10:37:19.098Z,11.90
2022-12-03T10:40:01.837Z,12.65
2022-12-03T10:42:33.705Z,14.77
2022-12-03T10:45:20.197Z,12.43
2022-12-03T10:48:13.157Z,12.85
2022-12-03T10:51:01.257Z,14.05
2022-12-03T10:53:31.593Z,12.95
2022-12-03T10:56:01.865Z,12.48
2022-12-03T10:58:33.818Z,11.70
2022-12-03T11:01:03.533Z,13.23
2022-12-03T11:03:34.084Z,12.75
2022-12-03T11:06:02.489Z,13.10
2022-12-03T11:08:35.381Z,12.32
2022-12-03T11:11:08.213Z,12.10
2022-12-03T11:13:34.761Z,12.80
2022-12-03T11:16:03.643Z,13.85
2022-12-03T11:18:36.378Z,13.10
2022-12-03T11:21:05.547Z,12.35
2022-12-03T11:23:44.284Z,12.60
2022-12-03T11:26:28.807Z,13.07
2022-12-03T11:28:57.354Z,13.40
2022-12-03T11:31:42.897Z,11.90
2022-12-03T11:34:18.658Z,13.23
2022-12-03T11:37:09.868Z,12.07
2022-12-03T11:39:48.250Z,11.20
2022-12-03T11:42:26.842Z,11.68
2022-12-03T11:45:05.535Z,12.88
2022-12-03T11:47:33.392Z,12.57
2022-12-03T11:50:00.232Z,12.13
2022-12-03T11:52:41.676Z,12.23
2022-12-03T11:55:28.293Z,13.02
2022-12-03T11:58:03.311Z,12.98
2022-12-03T12:00:30.698Z,12.07
2022-12-03T12:02:58.914Z,13.23
2022-12-03T12:05:33.778Z,11.98
2022-12-03T12:08:02.245Z,13.23
2022-12-03T12:10:48.218Z,12.90
2022-12-03T12:13:34.983Z,12.75
2022-12-03T12:16:04.280Z,16.20
2022-12-03T12:18:42.936Z,12.82
2022-12-03T12:21:43.578Z,12.25
2022-12-03T12:24:32.015Z,12.43
2022-12-03T12:27:05.661Z,12.18
2022-12-03T12:29:32.985Z,13.03
2022-12-03T12:32:23.184Z,11.90
2022-12-03T12:34:52.463Z,11.73
2022-12-03T12:37:36.909Z,12.23
2022-12-03T12:40:13.477Z,11.98
2022-12-03T12:42:50.070Z,11.50
2022-12-03T12:45:18.212Z,13.32
2022-12-03T12:47:57.535Z,11.77
2022-12-03T12:50:24.814Z,12.23
2022-12-03T12:53:01.198Z,12.43
2022-12-03T12:55:28.445Z,11.00
2022-12-03T12:58:00.091Z,12.60
2022-12-03T13:00:26.793Z,13.50
2022-12-03T13:03:05.413Z,12.90
2022-12-03T13:05:40.988Z,12.18
2022-12-03T13:08:31.891Z,12.03
2022-12-03T13:11:00.439Z,11.75
2022-12-03T13:13:43.582Z,11.93
2022-12-03T13:16:31.284Z,11.88
2022-12-03T13:19:01.442Z,10.63
2022-12-03T13:21:42.947Z,13.63
2022-12-03T13:24:37.556Z,12.82
2022-12-03T13:27:29.798Z,11.95
2022-12-03T13:30:00.801Z,10.90
2022-12-03T13:32:36.831Z,10.95
2022-12-03T13:35:07.961Z,12.10
2022-12-03T13:37:34.631Z,12.73
2022-12-03T13:40:12.957Z,11.02
2022-12-03T13:42:40.613Z,12.70
2022-12-03T13:45:16.655Z,11.00
2022-12-03T13:47:55.697Z,10.90
2022-12-03T13:50:31.748Z,12.65
2022-12-03T13:52:59.887Z,11.57
2022-12-03T13:55:29.346Z,11.07
2022-12-03T13:57:56.079Z,10.93
2022-12-03T14:00:23.260Z,12.97
2022-12-03T14:02:49.965Z,12.48
2022-12-03T14:05:16.689Z,10.82
2022-12-03T14:07:43.298Z,12.40
2022-12-03T14:10:12.016Z,12.38
2022-12-03T14:12:38.770Z,11.07
2022-12-03T14:15:06.706Z,12.45
2022-12-03T14:17:33.240Z,13.55
2022-12-03T14:20:03.779Z,11.93
2022-12-03T14:22:30.822Z,12.18
2022-12-03T14:24:57.660Z,12.93
2022-12-03T14:27:24.846Z,11.85
2022-12-03T14:29:52.039Z,12.13
2022-12-03T14:32:19.126Z,10.90
2022-12-03T14:34:45.762Z,11.68
2022-12-03T14:37:12.452Z,12.00
2022-12-03T14:39:39.303Z,10.90
2022-12-03T14:42:14.945Z,12.57
2022-12-03T14:44:51.793Z,12.77
2022-12-03T14:47:22.609Z,11.88
2022-12-03T14:49:49.838Z,12.33
2022-12-03T14:52:16.826Z,12.27
2022-12-03T14:54:43.829Z,11.35
2022-12-03T14:57:15.217Z,11.13
2022-12-03T14:59:42.804Z,11.52
2022-12-03T15:02:10.305Z,11.53
2022-12-03T15:04:37.917Z,11.52
2022-12-03T15:07:04.620Z,11.35
2022-12-03T15:09:31.341Z,12.45
2022-12-03T15:11:58.220Z,11.98
2022-12-03T15:14:24.766Z,12.33
2022-12-03T15:16:51.544Z,12.18
2022-12-03T15:19:18.214Z,11.25
2022-12-03T15:21:44.756Z,11.32
2022-12-03T15:24:11.339Z,10.82
2022-12-03T15:26:38.493Z,11.63
2022-12-03T15:29:05.149Z,11.80
2022-12-03T15:31:31.930Z,11.35
2022-12-03T15:33:58.667Z,11.40
2022-12-03T15:36:25.215Z,11.82
2022-12-03T15:38:51.784Z,11.43
2022-12-03T15:41:21.757Z,11.40
2022-12-03T15:43:48.962Z,11.50
2022-12-03T15:46:15.946Z,12.13
2022-12-03T15:48:43.014Z,12.52
2022-12-03T15:51:09.603Z,11.23
2022-12-03T15:53:36.184Z,11.80
2022-12-03T15:56:02.890Z,11.82
2022-12-03T15:58:29.434Z,11.93
2022-12-03T16:00:56.080Z,12.57
2022-12-03T16:03:22.769Z,11.67
2022-12-03T16:05:49.443Z,11.90
2022-12-03T16:08:16.100Z,12.52
2022-12-03T16:10:42.826Z,13.27
2022-12-03T16:13:09.412Z,12.13
2022-12-03T16:15:36.100Z,12.80
2022-12-03T16:18:02.772Z,12.07
2022-12-03T16:20:29.392Z,12.98
2022-12-03T16:22:55.964Z,11.90
2022-12-03T16:25:22.582Z,11.15
2022-12-03T16:27:49.279Z,12.07
2022-12-03T16:30:16.115Z,11.45
2022-12-03T16:32:42.691Z,12.57
2022-12-03T16:35:09.334Z,12.52
2022-12-03T16:37:35.946Z,11.65
2022-12-03T16:40:02.903Z,12.23
2022-12-03T16:42:29.627Z,12.50
2022-12-03T16:45:08.397Z,11.82
2022-12-03T16:47:35.372Z,12.82
2022-12-03T16:50:07.950Z,12.60
2022-12-03T16:52:35.611Z,12.60
2022-12-03T16:55:02.334Z,12.75
2022-12-03T16:57:33.297Z,12.75
2022-12-03T17:00:00.640Z,12.65
2022-12-03T17:02:27.791Z,12.57
2022-12-03T17:04:54.930Z,12.13
2022-12-03T17:07:21.597Z,13.23
2022-12-03T17:09:49.039Z,12.43
2022-12-03T17:12:15.617Z,13.10
2022-12-03T17:14:42.460Z,12.60
2022-12-03T17:17:09.103Z,12.70
2022-12-03T17:19:35.662Z,13.27
2022-12-03T17:22:02.246Z,14.23
2022-12-03T17:24:28.949Z,12.05
2022-12-03T17:26:55.588Z,11.30
2022-12-03T17:29:22.549Z,12.43
2022-12-03T17:31:49.290Z,12.60
2022-12-03T17:34:15.984Z,13.00
2022-12-03T17:36:42.529Z,13.07
2022-12-03T17:39:09.139Z,12.15
2022-12-03T17:41:35.756Z,12.40
2022-12-03T17:44:07.287Z,12.60
2022-12-03T17:46:36.473Z,13.30
2022-12-03T17:49:03.127Z,12.30
2022-12-03T17:51:29.738Z,12.57
2022-12-03T17:53:56.331Z,10.90
2022-12-03T17:56:22.892Z,14.40
2022-12-03T17:58:49.533Z,13.32
2022-12-03T18:01:16.581Z,12.38
2022-12-03T18:03:43.590Z,12.55
2022-12-03T18:06:10.282Z,11.80
2022-12-03T18:08:36.881Z,13.77
2022-12-03T18:11:03.478Z,12.90
2022-12-03T18:13:30.066Z,13.25
2022-12-03T18:15:56.721Z,13.48
2022-12-03T18:18:23.353Z,12.80
2022-12-03T18:20:50.149Z,14.02
2022-12-03T18:23:16.725Z,13.80
2022-12-03T18:25:43.345Z,13.98
2022-12-03T18:28:09.905Z,14.18
2022-12-03T18:30:36.703Z,13.43
2022-12-03T18:33:03.354Z,13.02
2022-12-03T18:35:30.068Z,14.60
2022-12-03T18:37:56.712Z,12.32
2022-12-03T18:40:24.638Z,13.95
2022-12-03T18:42:51.262Z,13.43
2022-12-03T18:45:18.184Z,13.07
2022-12-03T18:47:45.096Z,12.75
2022-12-03T18:50:12.187Z,14.73
2022-12-03T18:52:39.032Z,12.43
2022-12-03T18:55:06.754Z,12.83
2022-12-03T18:57:33.391Z,12.52
2022-12-03T19:00:01.419Z,14.02
2022-12-03T19:05:14.822Z,13.70
2022-12-03T19:07:43.282Z,13.83
2022-12-03T19:10:11.323Z,13.63
2022-12-03T19:12:38.725Z,15.18
2022-12-03T19:15:06.200Z,13.90
2022-12-03T19:17:32.770Z,14.68
2022-12-03T19:19:59.406Z,13.77
2022-12-03T19:22:25.951Z,13.57
2022-12-03T19:24:52.537Z,13.95
2022-12-03T19:27:19.513Z,13.38
2022-12-03T19:29:48.831Z,14.80
2022-12-03T19:32:15.839Z,13.80
2022-12-03T19:34:42.481Z,14.30
2022-12-03T19:37:09.062Z,14.80
2022-12-03T19:39:35.628Z,14.90
2022-12-03T19:42:02.203Z,14.73
2022-12-03T19:44:28.729Z,15.30
2022-12-03T19:46:56.849Z,14.80
2022-12-03T19:49:24.601Z,14.70
2022-12-03T19:51:51.277Z,14.18
2022-12-03T19:54:18.289Z,14.07
2022-12-03T19:56:45.167Z,14.97
2022-12-03T19:59:13.439Z,14.98
2022-12-03T20:01:42.991Z,14.65
2022-12-03T20:04:11.780Z,14.20
2022-12-03T20:06:39.091Z,15.85
2022-12-03T20:09:09.425Z,14.23
2022-12-03T20:11:36.209Z,15.82
2022-12-03T20:14:06.700Z,14.18
2022-12-03T20:16:34.068Z,15.27
2022-12-03T20:19:04.107Z,14.57
2022-12-03T20:21:32.582Z,14.00
2022-12-03T20:23:59.732Z,14.90
2022-12-03T20:26:27.104Z,13.90
2022-12-03T20:28:55.194Z,14.60
2022-12-03T20:31:23.713Z,15.38
2022-12-03T20:33:54.668Z,15.10
2022-12-03T20:36:25.259Z,14.48
2022-12-03T20:38:56.854Z,15.27
2022-12-03T20:41:23.870Z,14.82
2022-12-03T20:43:50.930Z,15.35
2022-12-03T20:46:36.823Z,14.97
2022-12-03T20:49:03.917Z,14.68
2022-12-03T20:51:31.647Z,15.38
2022-12-03T20:54:00.172Z,14.88
2022-12-03T20:56:32.702Z,14.60
2022-12-03T20:59:00.875Z,14.07
2022-12-03T21:01:28.458Z,15.63
2022-12-03T21:03:56.720Z,16.73
2022-12-03T21:06:26.012Z,14.65
2022-12-03T21:08:54.038Z,14.82
2022-12-03T21:11:26.841Z,17.23
2022-12-03T21:13:54.587Z,14.88
2022-12-03T21:16:45.616Z,16.33
2022-12-03T21:19:11.344Z,15.23
2022-12-03T21:21:37.925Z,16.52
2022-12-03T21:24:04.708Z,14.57
2022-12-03T21:26:31.371Z,14.98
2022-12-03T21:28:58.121Z,16.48
2022-12-03T21:31:26.652Z,17.08
2022-12-03T21:33:55.113Z,16.40
2022-12-03T21:36:22.712Z,16.87
2022-12-03T21:38:49.352Z,16.88
2022-12-03T21:41:16.016Z,16.88
2022-12-03T21:43:43.855Z,17.10
2022-12-03T21:47:12.137Z,16.98
2022-12-03T21:49:01.608Z,16.43
2022-12-03T21:51:28.208Z,17.35
2022-12-03T21:53:54.952Z,16.17
2022-12-03T21:56:21.666Z,16.33
2022-12-03T21:58:48.385Z,15.65
2022-12-03T22:01:21.658Z,16.23
2022-12-03T22:03:48.997Z,16.45
2022-12-03T22:06:16.153Z,14.93
2022-12-03T22:08:43.355Z,16.63
2022-12-03T22:11:13.355Z,16.95
2022-12-03T22:13:41.131Z,17.17
2022-12-03T22:16:10.765Z,16.40
2022-12-03T22:18:37.723Z,16.15
2022-12-03T22:21:06.815Z,17.73
2022-12-03T22:23:33.981Z,17.13
2022-12-03T22:26:03.040Z,16.87
2022-12-03T22:28:29.645Z,17.70
2022-12-03T22:30:56.294Z,17.95
2022-12-03T22:33:23.426Z,17.95
2022-12-03T22:35:57.093Z,17.33
2022-12-03T22:38:24.018Z,17.60
2022-12-03T22:40:50.820Z,17.00
2022-12-03T22:43:18.054Z,17.25
2022-12-03T22:45:44.721Z,16.83
2022-12-03T22:48:11.312Z,17.45
2022-12-03T22:50:43.419Z,19.13
2022-12-03T22:53:10.225Z,16.58
2022-12-03T22:55:37.011Z,17.73
2022-12-03T22:58:04.455Z,17.70
2022-12-03T23:00:37.357Z,16.88
2022-12-03T23:03:05.337Z,16.67
2022-12-03T23:05:38.647Z,17.13
2022-12-03T23:08:07.194Z,16.60
2022-12-03T23:10:38.714Z,18.17
2022-12-03T23:13:06.056Z,17.02
2022-12-03T23:15:32.995Z,18.63
2022-12-03T23:17:59.872Z,17.23
2022-12-03T23:20:27.565Z,18.13
2022-12-03T23:22:54.515Z,17.38
2022-12-03T23:25:21.611Z,17.50
2022-12-03T23:27:48.819Z,19.07
2022-12-03T23:30:16.340Z,16.98
2022-12-03T23:32:44.468Z,17.67
2022-12-03T23:35:12.348Z,17.70
2022-12-03T23:37:39.392Z,17.88
2022-12-03T23:40:06.712Z,17.47
2022-12-03T23:42:33.632Z,17.75
2022-12-03T23:45:00.196Z,18.17
2022-12-03T23:47:26.827Z,17.88
2022-12-03T23:49:53.698Z,19.80
2022-12-03T23:52:20.371Z,18.33
2022-12-03T23:54:47.039Z,17.40
2022-12-03T23:57:13.700Z,18.08
2022-12-03T23:59:42.075Z,18.95
